sensor_id;sensor_type;location;lat;lon;timestamp;pressure;altitude;pressure_sealevel;temperature;humidity
75039;BME280;63609;49.992;14.512;2023-03-05T00:01:24;97947.00;;;0.41;66.17
75039;BME280;63609;49.992;14.512;2023-03-05T00:03:54;97942.56;;;0.71;65.18
75039;BME280;63609;49.992;14.512;2023-03-05T00:06:23;97948.53;;;0.15;67.31
75039;BME280;63609;49.992;14.512;2023-03-05T00:08:51;97946.59;;;0.03;67.85
75039;BME280;63609;49.992;14.512;2023-03-05T00:11:19;97940.34;;;0.49;66.68
75039;BME280;63609;49.992;14.512;2023-03-05T00:13:50;97946.41;;;0.36;67.35
75039;BME280;63609;49.992;14.512;2023-03-05T00:16:17;97939.84;;;0.29;67.44
75039;BME280;63609;49.992;14.512;2023-03-05T00:18:44;97937.06;;;0.46;67.24
75039;BME280;63609;49.992;14.512;2023-03-05T00:21:19;97937.81;;;0.62;66.17
75039;BME280;63609;49.992;14.512;2023-03-05T00:23:47;97929.81;;;0.35;66.72
75039;BME280;63609;49.992;14.512;2023-03-05T00:26:14;97925.47;;;0.78;65.56
75039;BME280;63609;49.992;14.512;2023-03-05T00:28:42;97923.31;;;0.71;66.06
75039;BME280;63609;49.992;14.512;2023-03-05T00:31:09;97918.78;;;0.59;66.88
75039;BME280;63609;49.992;14.512;2023-03-05T00:33:40;97922.13;;;0.32;67.75
75039;BME280;63609;49.992;14.512;2023-03-05T00:36:07;97918.81;;;0.73;66.98
75039;BME280;63609;49.992;14.512;2023-03-05T00:38:34;97916.44;;;0.54;67.09
75039;BME280;63609;49.992;14.512;2023-03-05T00:41:01;97919.91;;;0.40;68.23
75039;BME280;63609;49.992;14.512;2023-03-05T00:43:28;97913.13;;;0.36;68.48
75039;BME280;63609;49.992;14.512;2023-03-05T00:45:55;97911.75;;;0.45;68.76
75039;BME280;63609;49.992;14.512;2023-03-05T00:48:22;97905.19;;;0.80;66.81
75039;BME280;63609;49.992;14.512;2023-03-05T00:50:49;97896.84;;;0.45;67.77
75039;BME280;63609;49.992;14.512;2023-03-05T00:53:16;97906.03;;;0.53;67.93
75039;BME280;63609;49.992;14.512;2023-03-05T00:55:43;97902.09;;;0.88;66.95
75039;BME280;63609;49.992;14.512;2023-03-05T00:58:10;97902.44;;;0.68;67.03
75039;BME280;63609;49.992;14.512;2023-03-05T01:00:37;97896.09;;;0.43;67.94
75039;BME280;63609;49.992;14.512;2023-03-05T01:03:04;97894.81;;;0.21;68.81
75039;BME280;63609;49.992;14.512;2023-03-05T01:05:31;97902.63;;;0.36;68.17
75039;BME280;63609;49.992;14.512;2023-03-05T01:07:59;97897.03;;;0.42;67.37
75039;BME280;63609;49.992;14.512;2023-03-05T01:10:26;97899.53;;;0.30;68.73
75039;BME280;63609;49.992;14.512;2023-03-05T01:12:54;97889.66;;;0.19;68.47
75039;BME280;63609;49.992;14.512;2023-03-05T01:15:23;97886.78;;;-0.06;70.37
75039;BME280;63609;49.992;14.512;2023-03-05T01:17:50;97881.34;;;-0.18;70.29
75039;BME280;63609;49.992;14.512;2023-03-05T01:20:19;97885.16;;;0.21;68.89
75039;BME280;63609;49.992;14.512;2023-03-05T01:22:54;97877.41;;;-0.10;69.19
75039;BME280;63609;49.992;14.512;2023-03-05T01:25:20;97879.63;;;0.11;69.58
75039;BME280;63609;49.992;14.512;2023-03-05T01:27:47;97875.69;;;0.33;68.54
75039;BME280;63609;49.992;14.512;2023-03-05T01:30:17;97866.97;;;0.32;68.34
75039;BME280;63609;49.992;14.512;2023-03-05T01:32:44;97864.25;;;0.34;68.71
75039;BME280;63609;49.992;14.512;2023-03-05T01:35:21;97863.16;;;0.38;68.28
75039;BME280;63609;49.992;14.512;2023-03-05T01:37:51;97861.38;;;-0.20;69.38
75039;BME280;63609;49.992;14.512;2023-03-05T01:40:23;97860.41;;;0.11;68.58
75039;BME280;63609;49.992;14.512;2023-03-05T01:43:00;97860.50;;;0.09;69.36
75039;BME280;63609;49.992;14.512;2023-03-05T01:45:32;97854.13;;;0.13;68.28
75039;BME280;63609;49.992;14.512;2023-03-05T01:47:59;97847.28;;;0.25;68.51
75039;BME280;63609;49.992;14.512;2023-03-05T01:50:27;97850.88;;;0.38;67.90
75039;BME280;63609;49.992;14.512;2023-03-05T01:53:00;97848.03;;;0.27;67.91
75039;BME280;63609;49.992;14.512;2023-03-05T01:55:29;97845.78;;;0.21;68.12
75039;BME280;63609;49.992;14.512;2023-03-05T02:00:31;97839.06;;;0.45;67.11
75039;BME280;63609;49.992;14.512;2023-03-05T02:03:06;97835.03;;;0.40;67.47
75039;BME280;63609;49.992;14.512;2023-03-05T02:05:38;97839.06;;;0.45;67.08
75039;BME280;63609;49.992;14.512;2023-03-05T02:08:09;97834.44;;;0.21;67.83
75039;BME280;63609;49.992;14.512;2023-03-05T02:10:41;97835.78;;;0.42;67.87
75039;BME280;63609;49.992;14.512;2023-03-05T02:13:10;97825.25;;;0.28;67.43
75039;BME280;63609;49.992;14.512;2023-03-05T02:15:38;97833.78;;;0.17;68.06
75039;BME280;63609;49.992;14.512;2023-03-05T02:18:07;97823.91;;;-0.08;68.42
75039;BME280;63609;49.992;14.512;2023-03-05T02:23:16;97825.81;;;0.33;66.91
75039;BME280;63609;49.992;14.512;2023-03-05T02:25:44;97825.38;;;0.40;66.71
75039;BME280;63609;49.992;14.512;2023-03-05T02:28:18;97823.25;;;-0.12;67.82
75039;BME280;63609;49.992;14.512;2023-03-05T02:30:48;97828.50;;;0.03;67.36
75039;BME280;63609;49.992;14.512;2023-03-05T02:33:17;97819.44;;;0.23;66.77
75039;BME280;63609;49.992;14.512;2023-03-05T02:35:44;97819.34;;;0.10;67.51
75039;BME280;63609;49.992;14.512;2023-03-05T02:38:13;97819.31;;;0.67;66.54
75039;BME280;63609;49.992;14.512;2023-03-05T02:40:41;97815.31;;;0.33;66.83
75039;BME280;63609;49.992;14.512;2023-03-05T02:43:08;97808.66;;;0.27;66.52
75039;BME280;63609;49.992;14.512;2023-03-05T02:45:36;97813.03;;;-0.02;68.01
75039;BME280;63609;49.992;14.512;2023-03-05T02:48:04;97812.88;;;-0.29;68.31
75039;BME280;63609;49.992;14.512;2023-03-05T02:50:32;97802.00;;;0.07;67.89
75039;BME280;63609;49.992;14.512;2023-03-05T02:52:59;97800.78;;;0.27;66.21
75039;BME280;63609;49.992;14.512;2023-03-05T02:55:27;97808.75;;;0.11;67.40
75039;BME280;63609;49.992;14.512;2023-03-05T02:57:54;97799.38;;;0.07;67.50
75039;BME280;63609;49.992;14.512;2023-03-05T03:00:21;97809.97;;;0.34;66.77
75039;BME280;63609;49.992;14.512;2023-03-05T03:02:56;97803.56;;;0.67;65.32
75039;BME280;63609;49.992;14.512;2023-03-05T03:05:25;97801.44;;;0.59;64.83
75039;BME280;63609;49.992;14.512;2023-03-05T03:07:52;97807.25;;;0.50;65.63
75039;BME280;63609;49.992;14.512;2023-03-05T03:10:23;97806.59;;;0.61;65.08
75039;BME280;63609;49.992;14.512;2023-03-05T03:12:52;97800.72;;;0.84;64.34
75039;BME280;63609;49.992;14.512;2023-03-05T03:15:19;97799.66;;;1.01;63.60
75039;BME280;63609;49.992;14.512;2023-03-05T03:17:49;97801.56;;;0.43;65.87
75039;BME280;63609;49.992;14.512;2023-03-05T03:20:17;97796.63;;;1.61;61.86
75039;BME280;63609;49.992;14.512;2023-03-05T03:22:45;97790.34;;;1.09;63.39
75039;BME280;63609;49.992;14.512;2023-03-05T03:25:17;97793.28;;;0.49;64.91
75039;BME280;63609;49.992;14.512;2023-03-05T03:27:44;97794.06;;;1.47;62.65
75039;BME280;63609;49.992;14.512;2023-03-05T03:30:11;97789.94;;;1.16;64.00
75039;BME280;63609;49.992;14.512;2023-03-05T03:32:38;97786.03;;;0.67;64.99
75039;BME280;63609;49.992;14.512;2023-03-05T03:35:06;97790.13;;;0.86;65.05
75039;BME280;63609;49.992;14.512;2023-03-05T03:37:33;97786.50;;;1.01;63.97
75039;BME280;63609;49.992;14.512;2023-03-05T03:40:00;97787.28;;;0.33;65.80
75039;BME280;63609;49.992;14.512;2023-03-05T03:42:27;97785.84;;;0.56;65.44
75039;BME280;63609;49.992;14.512;2023-03-05T03:44:54;97783.03;;;0.59;65.39
75039;BME280;63609;49.992;14.512;2023-03-05T03:47:28;97780.75;;;0.81;64.75
75039;BME280;63609;49.992;14.512;2023-03-05T03:49:55;97780.47;;;0.86;64.33
75039;BME280;63609;49.992;14.512;2023-03-05T03:52:25;97781.00;;;0.91;63.89
75039;BME280;63609;49.992;14.512;2023-03-05T03:54:52;97773.38;;;0.74;63.92
75039;BME280;63609;49.992;14.512;2023-03-05T03:57:21;97774.41;;;0.71;64.99
75039;BME280;63609;49.992;14.512;2023-03-05T03:59:48;97781.69;;;0.80;64.13
75039;BME280;63609;49.992;14.512;2023-03-05T04:02:16;97779.97;;;0.53;65.45
75039;BME280;63609;49.992;14.512;2023-03-05T04:04:43;97783.81;;;0.47;65.25
75039;BME280;63609;49.992;14.512;2023-03-05T04:07:10;97780.13;;;0.64;65.04
75039;BME280;63609;49.992;14.512;2023-03-05T04:09:37;97764.78;;;0.15;65.96
75039;BME280;63609;49.992;14.512;2023-03-05T04:12:04;97762.50;;;0.37;65.95
75039;BME280;63609;49.992;14.512;2023-03-05T04:14:31;97766.75;;;0.40;66.18
75039;BME280;63609;49.992;14.512;2023-03-05T04:16:58;97764.31;;;0.23;66.00
75039;BME280;63609;49.992;14.512;2023-03-05T04:19:25;97762.81;;;-0.24;67.42
75039;BME280;63609;49.992;14.512;2023-03-05T04:21:54;97759.00;;;0.10;66.61
75039;BME280;63609;49.992;14.512;2023-03-05T04:24:21;97760.38;;;0.01;65.91
75039;BME280;63609;49.992;14.512;2023-03-05T04:26:47;97761.75;;;0.35;64.97
75039;BME280;63609;49.992;14.512;2023-03-05T04:29:19;97759.53;;;-0.14;65.57
75039;BME280;63609;49.992;14.512;2023-03-05T04:31:46;97756.31;;;0.53;63.94
75039;BME280;63609;49.992;14.512;2023-03-05T04:34:12;97753.56;;;0.13;63.82
75039;BME280;63609;49.992;14.512;2023-03-05T04:36:39;97760.53;;;0.55;62.77
75039;BME280;63609;49.992;14.512;2023-03-05T04:39:06;97756.91;;;0.43;63.78
75039;BME280;63609;49.992;14.512;2023-03-05T04:41:33;97752.31;;;0.33;63.22
75039;BME280;63609;49.992;14.512;2023-03-05T04:44:00;97752.34;;;1.01;61.85
75039;BME280;63609;49.992;14.512;2023-03-05T04:46:27;97754.94;;;0.33;62.96
75039;BME280;63609;49.992;14.512;2023-03-05T04:48:56;97755.50;;;-0.19;64.02
75039;BME280;63609;49.992;14.512;2023-03-05T04:51:27;97750.25;;;-0.63;65.22
75039;BME280;63609;49.992;14.512;2023-03-05T04:53:54;97746.53;;;-0.59;64.51
75039;BME280;63609;49.992;14.512;2023-03-05T04:56:22;97756.84;;;-1.02;66.17
75039;BME280;63609;49.992;14.512;2023-03-05T04:58:48;97740.88;;;-0.67;65.05
75039;BME280;63609;49.992;14.512;2023-03-05T05:01:16;97755.34;;;-0.46;65.46
75039;BME280;63609;49.992;14.512;2023-03-05T05:03:43;97757.94;;;-0.60;65.95
75039;BME280;63609;49.992;14.512;2023-03-05T05:06:09;97765.16;;;-0.20;64.89
75039;BME280;63609;49.992;14.512;2023-03-05T05:08:37;97756.94;;;-0.44;64.93
75039;BME280;63609;49.992;14.512;2023-03-05T05:11:06;97761.03;;;0.33;62.83
75039;BME280;63609;49.992;14.512;2023-03-05T05:13:33;97773.41;;;0.31;63.11
75039;BME280;63609;49.992;14.512;2023-03-05T05:16:01;97760.13;;;0.06;62.36
75039;BME280;63609;49.992;14.512;2023-03-05T05:18:29;97768.63;;;0.24;63.24
75039;BME280;63609;49.992;14.512;2023-03-05T05:20:56;97768.72;;;-0.21;63.41
75039;BME280;63609;49.992;14.512;2023-03-05T05:23:23;97769.84;;;0.32;61.63
75039;BME280;63609;49.992;14.512;2023-03-05T05:25:58;97770.88;;;0.85;60.55
75039;BME280;63609;49.992;14.512;2023-03-05T05:28:26;97770.16;;;0.69;60.24
75039;BME280;63609;49.992;14.512;2023-03-05T05:30:54;97776.84;;;0.74;60.72
75039;BME280;63609;49.992;14.512;2023-03-05T05:33:23;97777.22;;;0.95;59.17
75039;BME280;63609;49.992;14.512;2023-03-05T05:35:50;97770.63;;;0.06;60.96
75039;BME280;63609;49.992;14.512;2023-03-05T05:38:17;97776.03;;;-0.12;62.07
75039;BME280;63609;49.992;14.512;2023-03-05T05:40:44;97776.69;;;0.21;61.25
75039;BME280;63609;49.992;14.512;2023-03-05T05:43:11;97779.31;;;0.49;60.39
75039;BME280;63609;49.992;14.512;2023-03-05T05:45:38;97778.38;;;0.22;60.95
75039;BME280;63609;49.992;14.512;2023-03-05T05:48:05;97780.59;;;0.70;59.23
75039;BME280;63609;49.992;14.512;2023-03-05T05:50:32;97775.47;;;0.26;60.42
75039;BME280;63609;49.992;14.512;2023-03-05T05:53:03;97778.75;;;0.01;61.30
75039;BME280;63609;49.992;14.512;2023-03-05T05:55:33;97778.00;;;0.13;60.29
75039;BME280;63609;49.992;14.512;2023-03-05T05:58:00;97782.69;;;-0.06;60.53
75039;BME280;63609;49.992;14.512;2023-03-05T06:00:29;97787.13;;;0.08;60.49
75039;BME280;63609;49.992;14.512;2023-03-05T06:02:59;97787.47;;;-0.13;61.25
75039;BME280;63609;49.992;14.512;2023-03-05T06:05:26;97785.50;;;-0.09;60.65
75039;BME280;63609;49.992;14.512;2023-03-05T06:07:53;97787.00;;;-0.05;60.57
75039;BME280;63609;49.992;14.512;2023-03-05T06:10:20;97784.13;;;-0.30;60.75
75039;BME280;63609;49.992;14.512;2023-03-05T06:12:47;97789.50;;;-0.03;61.34
75039;BME280;63609;49.992;14.512;2023-03-05T06:15:14;97801.06;;;-0.50;61.82
75039;BME280;63609;49.992;14.512;2023-03-05T06:17:41;97788.28;;;0.59;59.65
75039;BME280;63609;49.992;14.512;2023-03-05T06:20:11;97794.59;;;-0.45;60.76
75039;BME280;63609;49.992;14.512;2023-03-05T06:22:39;97794.00;;;-0.05;60.27
75039;BME280;63609;49.992;14.512;2023-03-05T06:25:07;97794.38;;;-0.56;60.47
75039;BME280;63609;49.992;14.512;2023-03-05T06:27:35;97795.56;;;-0.61;61.77
75039;BME280;63609;49.992;14.512;2023-03-05T06:30:05;97791.09;;;-0.89;61.66
75039;BME280;63609;49.992;14.512;2023-03-05T06:32:34;97783.00;;;-0.70;60.72
75039;BME280;63609;49.992;14.512;2023-03-05T06:35:02;97786.91;;;-0.48;59.94
75039;BME280;63609;49.992;14.512;2023-03-05T06:37:28;97776.91;;;-0.41;60.33
75039;BME280;63609;49.992;14.512;2023-03-05T06:39:55;97781.09;;;-0.53;60.08
75039;BME280;63609;49.992;14.512;2023-03-05T06:42:22;97788.38;;;-0.14;59.59
75039;BME280;63609;49.992;14.512;2023-03-05T06:44:50;97782.03;;;0.33;58.29
75039;BME280;63609;49.992;14.512;2023-03-05T06:47:17;97778.09;;;0.40;57.53
75039;BME280;63609;49.992;14.512;2023-03-05T06:49:44;97778.94;;;0.41;58.61
75039;BME280;63609;49.992;14.512;2023-03-05T06:52:14;97778.84;;;-0.15;60.38
75039;BME280;63609;49.992;14.512;2023-03-05T06:54:42;97778.22;;;-0.34;60.51
75039;BME280;63609;49.992;14.512;2023-03-05T06:57:09;97780.09;;;-0.36;60.61
75039;BME280;63609;49.992;14.512;2023-03-05T06:59:36;97773.00;;;-0.64;60.96
75039;BME280;63609;49.992;14.512;2023-03-05T07:02:03;97776.53;;;-0.65;60.27
75039;BME280;63609;49.992;14.512;2023-03-05T07:04:30;97784.00;;;-0.73;60.67
75039;BME280;63609;49.992;14.512;2023-03-05T07:06:57;97784.56;;;-0.52;59.54
75039;BME280;63609;49.992;14.512;2023-03-05T07:09:26;97782.81;;;-0.37;59.67
75039;BME280;63609;49.992;14.512;2023-03-05T07:11:52;97783.28;;;-0.31;58.69
75039;BME280;63609;49.992;14.512;2023-03-05T07:14:20;97784.53;;;-0.22;57.61
75039;BME280;63609;49.992;14.512;2023-03-05T07:16:47;97787.38;;;0.03;55.52
75039;BME280;63609;49.992;14.512;2023-03-05T07:19:15;97770.03;;;0.01;54.39
75039;BME280;63609;49.992;14.512;2023-03-05T07:21:42;97772.88;;;-0.32;53.72
75039;BME280;63609;49.992;14.512;2023-03-05T07:24:14;97778.22;;;-0.34;53.91
75039;BME280;63609;49.992;14.512;2023-03-05T07:26:56;97783.91;;;0.17;51.77
75039;BME280;63609;49.992;14.512;2023-03-05T07:29:24;97773.31;;;-0.24;53.48
75039;BME280;63609;49.992;14.512;2023-03-05T07:31:52;97778.38;;;-0.51;53.80
75039;BME280;63609;49.992;14.512;2023-03-05T07:34:20;97771.75;;;-0.43;54.07
75039;BME280;63609;49.992;14.512;2023-03-05T07:36:55;97780.75;;;-0.62;54.49
75039;BME280;63609;49.992;14.512;2023-03-05T07:39:25;97775.28;;;-0.58;53.49
75039;BME280;63609;49.992;14.512;2023-03-05T07:41:56;97780.34;;;-0.10;52.76
75039;BME280;63609;49.992;14.512;2023-03-05T07:44:28;97776.25;;;-0.30;53.52
75039;BME280;63609;49.992;14.512;2023-03-05T07:46:55;97770.06;;;-0.29;53.79
75039;BME280;63609;49.992;14.512;2023-03-05T07:49:22;97773.22;;;-0.08;53.63
75039;BME280;63609;49.992;14.512;2023-03-05T07:51:50;97778.38;;;-0.07;52.52
75039;BME280;63609;49.992;14.512;2023-03-05T07:54:17;97767.53;;;-0.31;52.74
75039;BME280;63609;49.992;14.512;2023-03-05T07:56:44;97777.25;;;0.26;52.91
75039;BME280;63609;49.992;14.512;2023-03-05T07:59:12;97780.81;;;-0.48;53.91
75039;BME280;63609;49.992;14.512;2023-03-05T08:01:39;97787.13;;;-0.66;54.67
75039;BME280;63609;49.992;14.512;2023-03-05T08:04:07;97782.75;;;-0.22;52.05
75039;BME280;63609;49.992;14.512;2023-03-05T08:06:40;97792.63;;;-0.71;54.16
75039;BME280;63609;49.992;14.512;2023-03-05T08:09:08;97783.56;;;0.09;52.82
75039;BME280;63609;49.992;14.512;2023-03-05T08:11:35;97778.59;;;-0.70;53.87
75039;BME280;63609;49.992;14.512;2023-03-05T08:14:02;97776.94;;;-0.27;53.35
75039;BME280;63609;49.992;14.512;2023-03-05T08:16:31;97773.91;;;0.09;53.23
75039;BME280;63609;49.992;14.512;2023-03-05T08:18:58;97774.34;;;-0.57;53.19
75039;BME280;63609;49.992;14.512;2023-03-05T08:21:30;97781.00;;;-0.07;52.62
75039;BME280;63609;49.992;14.512;2023-03-05T08:24:04;97778.94;;;-0.02;51.15
75039;BME280;63609;49.992;14.512;2023-03-05T08:26:34;97770.97;;;0.42;51.98
75039;BME280;63609;49.992;14.512;2023-03-05T08:29:01;97773.22;;;0.20;51.50
75039;BME280;63609;49.992;14.512;2023-03-05T08:31:29;97758.72;;;-0.44;50.85
75039;BME280;63609;49.992;14.512;2023-03-05T08:33:59;97766.28;;;0.47;51.39
75039;BME280;63609;49.992;14.512;2023-03-05T08:36:27;97750.25;;;0.24;50.43
75039;BME280;63609;49.992;14.512;2023-03-05T08:39:00;97750.03;;;0.55;48.30
75039;BME280;63609;49.992;14.512;2023-03-05T08:41:27;97756.50;;;1.45;45.99
75039;BME280;63609;49.992;14.512;2023-03-05T08:43:54;97748.13;;;0.98;44.59
75039;BME280;63609;49.992;14.512;2023-03-05T08:46:21;97747.91;;;1.28;44.30
75039;BME280;63609;49.992;14.512;2023-03-05T08:48:48;97744.53;;;0.99;42.87
75039;BME280;63609;49.992;14.512;2023-03-05T08:51:19;97749.13;;;0.83;42.05
75039;BME280;63609;49.992;14.512;2023-03-05T08:53:46;97740.41;;;1.22;41.78
75039;BME280;63609;49.992;14.512;2023-03-05T08:56:14;97736.09;;;1.61;41.91
75039;BME280;63609;49.992;14.512;2023-03-05T08:58:41;97742.06;;;1.37;43.52
75039;BME280;63609;49.992;14.512;2023-03-05T09:01:08;97737.59;;;0.98;43.11
75039;BME280;63609;49.992;14.512;2023-03-05T09:03:35;97735.38;;;0.92;45.20
75039;BME280;63609;49.992;14.512;2023-03-05T09:06:06;97737.66;;;1.11;45.08
75039;BME280;63609;49.992;14.512;2023-03-05T09:08:37;97730.81;;;0.55;45.97
75039;BME280;63609;49.992;14.512;2023-03-05T09:11:08;97732.19;;;1.41;45.32
75039;BME280;63609;49.992;14.512;2023-03-05T09:13:35;97737.50;;;1.00;45.95
75039;BME280;63609;49.992;14.512;2023-03-05T09:16:06;97725.91;;;0.63;46.15
75039;BME280;63609;49.992;14.512;2023-03-05T09:18:34;97723.09;;;1.32;45.97
75039;BME280;63609;49.992;14.512;2023-03-05T09:21:05;97726.72;;;1.04;46.45
75039;BME280;63609;49.992;14.512;2023-03-05T09:23:33;97709.66;;;0.70;48.00
75039;BME280;63609;49.992;14.512;2023-03-05T09:26:00;97722.41;;;1.03;47.33
75039;BME280;63609;49.992;14.512;2023-03-05T09:28:34;97716.88;;;0.94;47.85
75039;BME280;63609;49.992;14.512;2023-03-05T09:31:02;97699.91;;;1.12;46.72
75039;BME280;63609;49.992;14.512;2023-03-05T09:33:30;97714.56;;;0.89;47.98
75039;BME280;63609;49.992;14.512;2023-03-05T09:35:59;97710.97;;;1.17;48.36
75039;BME280;63609;49.992;14.512;2023-03-05T09:38:27;97695.28;;;1.16;47.95
75039;BME280;63609;49.992;14.512;2023-03-05T09:41:06;97695.72;;;1.09;50.07
75039;BME280;63609;49.992;14.512;2023-03-05T09:49:32;97693.91;;;1.10;48.87
75039;BME280;63609;49.992;14.512;2023-03-05T09:52:20;97695.31;;;0.89;50.99
75039;BME280;63609;49.992;14.512;2023-03-05T09:54:54;97696.22;;;0.75;51.57
75039;BME280;63609;49.992;14.512;2023-03-05T09:57:41;97675.78;;;0.66;50.63
75039;BME280;63609;49.992;14.512;2023-03-05T10:00:35;97677.72;;;1.03;50.27
75039;BME280;63609;49.992;14.512;2023-03-05T10:03:09;97682.97;;;1.03;51.19
75039;BME280;63609;49.992;14.512;2023-03-05T10:05:48;97693.84;;;0.85;50.99
75039;BME280;63609;49.992;14.512;2023-03-05T10:08:18;97686.94;;;0.96;51.01
75039;BME280;63609;49.992;14.512;2023-03-05T10:10:51;97684.16;;;1.25;50.90
75039;BME280;63609;49.992;14.512;2023-03-05T10:13:24;97683.31;;;1.11;49.69
75039;BME280;63609;49.992;14.512;2023-03-05T10:18:45;97677.16;;;1.38;50.38
75039;BME280;63609;49.992;14.512;2023-03-05T10:21:23;97676.41;;;1.36;49.93
75039;BME280;63609;49.992;14.512;2023-03-05T10:24:08;97671.63;;;1.68;49.14
75039;BME280;63609;49.992;14.512;2023-03-05T10:29:55;97660.44;;;1.90;49.08
75039;BME280;63609;49.992;14.512;2023-03-05T10:35:49;97663.28;;;1.74;48.81
75039;BME280;63609;49.992;14.512;2023-03-05T10:39:22;97667.63;;;1.10;48.42
75039;BME280;63609;49.992;14.512;2023-03-05T10:41:51;97660.78;;;2.22;49.33
75039;BME280;63609;49.992;14.512;2023-03-05T10:47:02;97645.06;;;1.58;49.38
75039;BME280;63609;49.992;14.512;2023-03-05T10:49:31;97634.69;;;1.44;50.57
75039;BME280;63609;49.992;14.512;2023-03-05T10:54:54;97634.56;;;1.58;49.58
75039;BME280;63609;49.992;14.512;2023-03-05T10:57:23;97642.47;;;1.71;49.86
75039;BME280;63609;49.992;14.512;2023-03-05T11:00:16;97641.84;;;1.42;50.30
75039;BME280;63609;49.992;14.512;2023-03-05T11:03:02;97633.59;;;1.59;49.80
75039;BME280;63609;49.992;14.512;2023-03-05T11:08:25;97637.78;;;1.24;47.39
75039;BME280;63609;49.992;14.512;2023-03-05T11:11:16;97630.13;;;1.84;48.85
75039;BME280;63609;49.992;14.512;2023-03-05T11:13:57;97621.47;;;1.31;47.99
75039;BME280;63609;49.992;14.512;2023-03-05T11:16:28;97603.88;;;1.95;48.50
75039;BME280;63609;49.992;14.512;2023-03-05T11:19:16;97601.72;;;1.64;47.48
75039;BME280;63609;49.992;14.512;2023-03-05T11:22:13;97599.84;;;1.53;48.45
75039;BME280;63609;49.992;14.512;2023-03-05T11:24:42;97595.31;;;1.68;46.58
75039;BME280;63609;49.992;14.512;2023-03-05T11:27:53;97592.97;;;1.76;45.48
75039;BME280;63609;49.992;14.512;2023-03-05T11:30:24;97592.47;;;1.58;47.20
75039;BME280;63609;49.992;14.512;2023-03-05T11:33:14;97592.28;;;1.98;45.78
75039;BME280;63609;49.992;14.512;2023-03-05T11:35:43;97585.31;;;1.09;46.57
75039;BME280;63609;49.992;14.512;2023-03-05T11:38:22;97577.22;;;1.51;46.64
75039;BME280;63609;49.992;14.512;2023-03-05T11:40:52;97576.28;;;1.52;45.85
75039;BME280;63609;49.992;14.512;2023-03-05T11:43:22;97568.69;;;1.60;46.25
75039;BME280;63609;49.992;14.512;2023-03-05T11:45:55;97559.59;;;1.77;44.96
75039;BME280;63609;49.992;14.512;2023-03-05T11:48:31;97555.84;;;2.28;45.38
75039;BME280;63609;49.992;14.512;2023-03-05T11:51:16;97542.03;;;1.77;46.24
75039;BME280;63609;49.992;14.512;2023-03-05T11:53:49;97545.09;;;1.71;44.97
75039;BME280;63609;49.992;14.512;2023-03-05T11:56:19;97547.00;;;1.56;45.47
75039;BME280;63609;49.992;14.512;2023-03-05T12:01:55;97540.78;;;1.70;45.26
75039;BME280;63609;49.992;14.512;2023-03-05T12:04:23;97538.69;;;1.62;44.46
75039;BME280;63609;49.992;14.512;2023-03-05T12:06:53;97535.94;;;1.64;45.07
75039;BME280;63609;49.992;14.512;2023-03-05T12:17:57;97536.09;;;2.58;43.11
75039;BME280;63609;49.992;14.512;2023-03-05T12:23:20;97510.94;;;2.54;42.15
75039;BME280;63609;49.992;14.512;2023-03-05T12:25:57;97511.88;;;2.53;42.46
75039;BME280;63609;49.992;14.512;2023-03-05T12:33:42;97498.91;;;2.39;42.48
75039;BME280;63609;49.992;14.512;2023-03-05T12:44:17;97486.94;;;1.37;44.96
75039;BME280;63609;49.992;14.512;2023-03-05T12:47:13;97494.44;;;1.18;45.68
75039;BME280;63609;49.992;14.512;2023-03-05T12:49:44;97490.41;;;1.51;44.78
75039;BME280;63609;49.992;14.512;2023-03-05T12:52:22;97483.50;;;1.24;44.91
75039;BME280;63609;49.992;14.512;2023-03-05T12:55:11;97481.47;;;1.28;45.29
75039;BME280;63609;49.992;14.512;2023-03-05T12:57:43;97481.78;;;1.85;44.57
75039;BME280;63609;49.992;14.512;2023-03-05T13:00:39;97489.63;;;1.74;43.61
75039;BME280;63609;49.992;14.512;2023-03-05T13:03:13;97475.13;;;1.92;43.98
75039;BME280;63609;49.992;14.512;2023-03-05T13:05:51;97474.28;;;1.68;44.01
75039;BME280;63609;49.992;14.512;2023-03-05T13:08:23;97477.41;;;1.73;45.14
75039;BME280;63609;49.992;14.512;2023-03-05T13:10:53;97462.66;;;1.47;45.87
75039;BME280;63609;49.992;14.512;2023-03-05T13:13:21;97467.72;;;1.97;45.14
75039;BME280;63609;49.992;14.512;2023-03-05T13:15:51;97467.81;;;1.48;45.04
75039;BME280;63609;49.992;14.512;2023-03-05T13:18:29;97467.75;;;1.61;44.17
75039;BME280;63609;49.992;14.512;2023-03-05T13:21:01;97471.44;;;1.71;44.84
75039;BME280;63609;49.992;14.512;2023-03-05T13:23:31;97462.44;;;1.50;45.10
75039;BME280;63609;49.992;14.512;2023-03-05T13:28:38;97460.94;;;1.82;44.82
75039;BME280;63609;49.992;14.512;2023-03-05T13:31:15;97466.50;;;1.90;45.22
75039;BME280;63609;49.992;14.512;2023-03-05T13:33:53;97464.34;;;1.95;44.37
75039;BME280;63609;49.992;14.512;2023-03-05T13:36:24;97460.63;;;2.11;44.40
75039;BME280;63609;49.992;14.512;2023-03-05T13:38:52;97465.50;;;2.04;43.91
75039;BME280;63609;49.992;14.512;2023-03-05T13:41:26;97471.63;;;1.92;43.51
75039;BME280;63609;49.992;14.512;2023-03-05T13:46:36;97466.00;;;2.09;43.64
75039;BME280;63609;49.992;14.512;2023-03-05T13:49:25;97476.25;;;1.64;44.96
75039;BME280;63609;49.992;14.512;2023-03-05T13:51:56;97476.19;;;1.53;45.04
75039;BME280;63609;49.992;14.512;2023-03-05T13:54:24;97467.97;;;1.58;44.34
75039;BME280;63609;49.992;14.512;2023-03-05T13:56:58;97475.19;;;1.80;44.55
75039;BME280;63609;49.992;14.512;2023-03-05T13:59:28;97463.69;;;1.81;45.04
75039;BME280;63609;49.992;14.512;2023-03-05T14:01:59;97459.88;;;1.85;44.61
75039;BME280;63609;49.992;14.512;2023-03-05T14:04:29;97455.13;;;1.90;44.58
75039;BME280;63609;49.992;14.512;2023-03-05T14:07:38;97459.16;;;2.07;44.60
75039;BME280;63609;49.992;14.512;2023-03-05T14:10:33;97453.16;;;1.81;45.52
75039;BME280;63609;49.992;14.512;2023-03-05T14:13:24;97452.75;;;2.22;44.19
75039;BME280;63609;49.992;14.512;2023-03-05T14:16:24;97449.72;;;1.31;46.06
75039;BME280;63609;49.992;14.512;2023-03-05T14:18:59;97443.34;;;1.59;46.12